sensor_id;sensor_type;location;lat;lon;timestamp;temperature;humidity
9939;DHT22;5008;50.656;7.188;2023-03-01T05:01:10;-2.40;99.90
9939;DHT22;5008;50.656;7.188;2023-03-01T05:03:41;-2.50;99.90
9939;DHT22;5008;50.656;7.188;2023-03-01T05:06:07;-2.40;99.90
9939;DHT22;5008;50.656;7.188;2023-03-01T05:08:34;-2.50;99.90
9939;DHT22;5008;50.656;7.188;2023-03-01T05:11:03;-2.50;99.90
9939;DHT22;5008;50.656;7.188;2023-03-01T05:13:30;-2.50;99.90
9939;DHT22;5008;50.656;7.188;2023-03-01T05:15:58;-2.50;99.90
9939;DHT22;5008;50.656;7.188;2023-03-01T05:18:29;-2.40;99.90
9939;DHT22;5008;50.656;7.188;2023-03-01T05:21:02;-2.50;99.90
9939;DHT22;5008;50.656;7.188;2023-03-01T05:23:29;-2.50;99.90
9939;DHT22;5008;50.656;7.188;2023-03-01T05:26:15;-2.50;99.90
9939;DHT22;5008;50.656;7.188;2023-03-01T05:28:43;-2.50;99.90
9939;DHT22;5008;50.656;7.188;2023-03-01T05:31:09;-2.50;99.90
9939;DHT22;5008;50.656;7.188;2023-03-01T05:33:38;-2.60;99.90
9939;DHT22;5008;50.656;7.188;2023-03-01T05:36:06;-2.60;99.90
9939;DHT22;5008;50.656;7.188;2023-03-01T05:38:33;-2.60;99.90
9939;DHT22;5008;50.656;7.188;2023-03-01T05:41:00;-2.70;99.90
9939;DHT22;5008;50.656;7.188;2023-03-01T05:43:30;-2.70;99.90
9939;DHT22;5008;50.656;7.188;2023-03-01T05:45:59;-2.60;99.90
9939;DHT22;5008;50.656;7.188;2023-03-01T05:48:26;-2.60;99.90
9939;DHT22;5008;50.656;7.188;2023-03-01T05:50:54;-2.70;99.90
9939;DHT22;5008;50.656;7.188;2023-03-01T05:53:21;-2.70;99.90
9939;DHT22;5008;50.656;7.188;2023-03-01T05:55:54;-2.70;99.90
9939;DHT22;5008;50.656;7.188;2023-03-01T05:58:21;-2.70;99.90
9939;DHT22;5008;50.656;7.188;2023-03-01T06:00:49;-2.70;99.90
9939;DHT22;5008;50.656;7.188;2023-03-01T06:03:52;-2.80;99.90
9939;DHT22;5008;50.656;7.188;2023-03-01T06:06:36;-2.80;99.90
9939;DHT22;5008;50.656;7.188;2023-03-01T06:09:04;-2.90;99.90
9939;DHT22;5008;50.656;7.188;2023-03-01T06:11:33;-2.80;99.90
9939;DHT22;5008;50.656;7.188;2023-03-01T06:14:14;-2.80;99.90
9939;DHT22;5008;50.656;7.188;2023-03-01T06:16:43;-2.80;99.90
9939;DHT22;5008;50.656;7.188;2023-03-01T06:19:09;-2.80;99.90
9939;DHT22;5008;50.656;7.188;2023-03-01T06:21:40;-2.80;99.90
9939;DHT22;5008;50.656;7.188;2023-03-01T06:24:06;-2.80;99.90
9939;DHT22;5008;50.656;7.188;2023-03-01T06:26:33;-2.70;99.90
9939;DHT22;5008;50.656;7.188;2023-03-01T06:29:00;-2.70;99.90
9939;DHT22;5008;50.656;7.188;2023-03-01T06:31:33;-2.80;99.90
9939;DHT22;5008;50.656;7.188;2023-03-01T06:34:00;-2.70;99.90
9939;DHT22;5008;50.656;7.188;2023-03-01T06:36:26;-2.80;99.90
9939;DHT22;5008;50.656;7.188;2023-03-01T06:39:23;-2.80;99.90
9939;DHT22;5008;50.656;7.188;2023-03-01T06:41:53;-2.80;99.90
9939;DHT22;5008;50.656;7.188;2023-03-01T06:44:46;-2.90;99.90
9939;DHT22;5008;50.656;7.188;2023-03-01T06:47:13;-2.90;99.90
9939;DHT22;5008;50.656;7.188;2023-03-01T06:49:46;-2.80;99.90
9939;DHT22;5008;50.656;7.188;2023-03-01T06:52:30;-2.70;99.90
9939;DHT22;5008;50.656;7.188;2023-03-01T06:54:59;-2.70;99.90
9939;DHT22;5008;50.656;7.188;2023-03-01T06:57:26;-2.70;99.90
9939;DHT22;5008;50.656;7.188;2023-03-01T07:00:09;-2.70;99.90
9939;DHT22;5008;50.656;7.188;2023-03-01T07:02:36;-2.70;99.90
9939;DHT22;5008;50.656;7.188;2023-03-01T07:05:03;-2.70;99.90
9939;DHT22;5008;50.656;7.188;2023-03-01T07:07:30;-2.70;99.90
9939;DHT22;5008;50.656;7.188;2023-03-01T07:10:18;-2.70;99.90
9939;DHT22;5008;50.656;7.188;2023-03-01T07:12:45;-2.70;99.90
9939;DHT22;5008;50.656;7.188;2023-03-01T07:15:12;-2.70;99.90
9939;DHT22;5008;50.656;7.188;2023-03-01T07:17:40;-2.60;99.90
9939;DHT22;5008;50.656;7.188;2023-03-01T07:20:08;-2.60;99.90
9939;DHT22;5008;50.656;7.188;2023-03-01T07:22:35;-2.50;99.90
9939;DHT22;5008;50.656;7.188;2023-03-01T07:25:02;-2.40;99.90
9939;DHT22;5008;50.656;7.188;2023-03-01T07:27:30;-2.30;99.90
9939;DHT22;5008;50.656;7.188;2023-03-01T07:29:57;-2.20;99.90
9939;DHT22;5008;50.656;7.188;2023-03-01T07:32:24;-2.20;99.90
9939;DHT22;5008;50.656;7.188;2023-03-01T07:34:51;-2.10;99.90
9939;DHT22;5008;50.656;7.188;2023-03-01T07:37:18;-2.10;99.90
9939;DHT22;5008;50.656;7.188;2023-03-01T07:39:44;-2.00;99.90
9939;DHT22;5008;50.656;7.188;2023-03-01T07:42:11;-2.00;99.90
9939;DHT22;5008;50.656;7.188;2023-03-01T07:44:39;-1.90;99.90
9939;DHT22;5008;50.656;7.188;2023-03-01T07:47:06;-1.80;99.90
9939;DHT22;5008;50.656;7.188;2023-03-01T07:49:33;-1.70;99.90
9939;DHT22;5008;50.656;7.188;2023-03-01T07:52:00;-1.70;99.90
9939;DHT22;5008;50.656;7.188;2023-03-01T07:54:26;-1.70;99.90
9939;DHT22;5008;50.656;7.188;2023-03-01T07:56:53;-1.60;99.90
9939;DHT22;5008;50.656;7.188;2023-03-01T07:59:20;-1.50;99.90
9939;DHT22;5008;50.656;7.188;2023-03-01T08:01:53;-1.50;99.90
9939;DHT22;5008;50.656;7.188;2023-03-01T08:04:26;-1.40;99.90
9939;DHT22;5008;50.656;7.188;2023-03-01T08:06:54;-1.30;99.90
9939;DHT22;5008;50.656;7.188;2023-03-01T08:09:46;-1.20;99.90
9939;DHT22;5008;50.656;7.188;2023-03-01T08:12:13;-1.10;99.90
9939;DHT22;5008;50.656;7.188;2023-03-01T08:14:41;-1.00;99.90
9939;DHT22;5008;50.656;7.188;2023-03-01T08:17:10;-1.00;99.90
9939;DHT22;5008;50.656;7.188;2023-03-01T08:19:37;-0.90;99.90
9939;DHT22;5008;50.656;7.188;2023-03-01T08:22:13;-0.80;99.90
9939;DHT22;5008;50.656;7.188;2023-03-01T08:24:46;-0.80;99.90
9939;DHT22;5008;50.656;7.188;2023-03-01T08:27:14;-0.70;99.90
9939;DHT22;5008;50.656;7.188;2023-03-01T08:29:41;-0.60;99.90
9939;DHT22;5008;50.656;7.188;2023-03-01T08:32:18;-0.50;99.90
9939;DHT22;5008;50.656;7.188;2023-03-01T08:34:46;-0.40;99.90
9939;DHT22;5008;50.656;7.188;2023-03-01T08:37:13;-0.30;99.90
9939;DHT22;5008;50.656;7.188;2023-03-01T08:39:40;-0.20;99.90
9939;DHT22;5008;50.656;7.188;2023-03-01T08:42:12;-0.10;99.90
9939;DHT22;5008;50.656;7.188;2023-03-01T08:44:39;0.00;99.90
9939;DHT22;5008;50.656;7.188;2023-03-01T08:47:06;0.10;99.90
9939;DHT22;5008;50.656;7.188;2023-03-01T08:49:34;0.20;99.90
9939;DHT22;5008;50.656;7.188;2023-03-01T08:52:04;0.30;99.90
9939;DHT22;5008;50.656;7.188;2023-03-01T08:54:42;0.40;99.90
9939;DHT22;5008;50.656;7.188;2023-03-01T08:57:12;0.50;99.90
9939;DHT22;5008;50.656;7.188;2023-03-01T08:59:45;0.60;99.90
9939;DHT22;5008;50.656;7.188;2023-03-01T09:02:17;0.70;99.90
9939;DHT22;5008;50.656;7.188;2023-03-01T09:05:32;0.90;99.90
9939;DHT22;5008;50.656;7.188;2023-03-01T09:08:15;1.10;99.90
9939;DHT22;5008;50.656;7.188;2023-03-01T09:10:43;1.30;99.90
9939;DHT22;5008;50.656;7.188;2023-03-01T09:13:10;1.30;99.90
9939;DHT22;5008;50.656;7.188;2023-03-01T09:16:12;1.40;99.90
9939;DHT22;5008;50.656;7.188;2023-03-01T09:18:40;1.60;99.90
9939;DHT22;5008;50.656;7.188;2023-03-01T09:21:13;1.70;99.90
9939;DHT22;5008;50.656;7.188;2023-03-01T09:23:42;1.80;99.90
9939;DHT22;5008;50.656;7.188;2023-03-01T09:26:11;1.80;99.90
9939;DHT22;5008;50.656;7.188;2023-03-01T09:28:38;1.90;99.90
9939;DHT22;5008;50.656;7.188;2023-03-01T09:31:06;1.90;99.90
9939;DHT22;5008;50.656;7.188;2023-03-01T09:33:33;2.00;99.90
9939;DHT22;5008;50.656;7.188;2023-03-01T09:36:01;2.10;99.90
9939;DHT22;5008;50.656;7.188;2023-03-01T09:38:31;2.10;99.90
9939;DHT22;5008;50.656;7.188;2023-03-01T09:40:58;2.10;99.90
9939;DHT22;5008;50.656;7.188;2023-03-01T09:43:31;2.20;99.90
9939;DHT22;5008;50.656;7.188;2023-03-01T09:46:03;2.20;99.90
9939;DHT22;5008;50.656;7.188;2023-03-01T09:48:37;2.30;99.90
9939;DHT22;5008;50.656;7.188;2023-03-01T09:51:12;2.40;99.90
9939;DHT22;5008;50.656;7.188;2023-03-01T09:53:42;2.50;99.90
9939;DHT22;5008;50.656;7.188;2023-03-01T09:56:16;2.50;99.90
9939;DHT22;5008;50.656;7.188;2023-03-01T09:58:52;2.60;99.90
9939;DHT22;5008;50.656;7.188;2023-03-01T10:01:30;2.80;99.90
9939;DHT22;5008;50.656;7.188;2023-03-01T10:04:32;2.80;99.90
9939;DHT22;5008;50.656;7.188;2023-03-01T10:07:21;2.90;99.90
9939;DHT22;5008;50.656;7.188;2023-03-01T10:09:52;3.00;99.90
9939;DHT22;5008;50.656;7.188;2023-03-01T10:12:22;3.20;99.90
9939;DHT22;5008;50.656;7.188;2023-03-01T10:14:55;3.20;99.90
9939;DHT22;5008;50.656;7.188;2023-03-01T10:17:27;3.30;99.90
9939;DHT22;5008;50.656;7.188;2023-03-01T10:20:05;3.50;99.90
9939;DHT22;5008;50.656;7.188;2023-03-01T10:22:37;3.60;99.90
9939;DHT22;5008;50.656;7.188;2023-03-01T10:25:14;3.70;99.90
9939;DHT22;5008;50.656;7.188;2023-03-01T10:27:49;3.80;99.90
9939;DHT22;5008;50.656;7.188;2023-03-01T10:30:20;4.00;99.90
9939;DHT22;5008;50.656;7.188;2023-03-01T10:32:51;4.20;99.90
9939;DHT22;5008;50.656;7.188;2023-03-01T10:35:21;4.40;99.90
9939;DHT22;5008;50.656;7.188;2023-03-01T10:38:02;4.40;99.90
9939;DHT22;5008;50.656;7.188;2023-03-01T10:40:31;4.50;99.90
9939;DHT22;5008;50.656;7.188;2023-03-01T10:43:00;4.70;99.90
9939;DHT22;5008;50.656;7.188;2023-03-01T10:45:32;4.70;99.90
9939;DHT22;5008;50.656;7.188;2023-03-01T10:48:14;4.90;99.90
9939;DHT22;5008;50.656;7.188;2023-03-01T10:50:42;5.00;99.90
9939;DHT22;5008;50.656;7.188;2023-03-01T10:53:24;5.20;99.90
9939;DHT22;5008;50.656;7.188;2023-03-01T10:56:02;5.30;99.90
9939;DHT22;5008;50.656;7.188;2023-03-01T10:58:31;5.40;99.90
9939;DHT22;5008;50.656;7.188;2023-03-01T11:01:00;5.80;99.90
9939;DHT22;5008;50.656;7.188;2023-03-01T11:03:29;5.90;99.90
9939;DHT22;5008;50.656;7.188;2023-03-01T11:06:02;6.00;99.90
9939;DHT22;5008;50.656;7.188;2023-03-01T11:08:43;6.10;99.90
9939;DHT22;5008;50.656;7.188;2023-03-01T11:11:35;6.30;99.90
9939;DHT22;5008;50.656;7.188;2023-03-01T11:14:07;6.20;99.90
9939;DHT22;5008;50.656;7.188;2023-03-01T11:16:35;6.10;99.90
9939;DHT22;5008;50.656;7.188;2023-03-01T11:19:20;6.10;99.90
9939;DHT22;5008;50.656;7.188;2023-03-01T11:21:59;6.10;99.90
9939;DHT22;5008;50.656;7.188;2023-03-01T11:24:37;6.10;99.90
9939;DHT22;5008;50.656;7.188;2023-03-01T11:27:15;6.20;99.90
9939;DHT22;5008;50.656;7.188;2023-03-01T11:29:48;6.10;99.90
9939;DHT22;5008;50.656;7.188;2023-03-01T11:32:23;6.10;99.90
9939;DHT22;5008;50.656;7.188;2023-03-01T11:34:55;6.10;99.90
9939;DHT22;5008;50.656;7.188;2023-03-01T11:37:32;6.20;99.90
9939;DHT22;5008;50.656;7.188;2023-03-01T11:40:10;6.40;99.90
9939;DHT22;5008;50.656;7.188;2023-03-01T11:42:49;6.70;99.90
9939;DHT22;5008;50.656;7.188;2023-03-01T11:45:19;6.70;99.90
9939;DHT22;5008;50.656;7.188;2023-03-01T11:48:05;6.80;99.90
9939;DHT22;5008;50.656;7.188;2023-03-01T11:50:42;6.70;99.90
9939;DHT22;5008;50.656;7.188;2023-03-01T11:53:29;6.90;99.90
9939;DHT22;5008;50.656;7.188;2023-03-01T11:56:05;7.30;99.90
9939;DHT22;5008;50.656;7.188;2023-03-01T12:01:37;8.30;98.80
9939;DHT22;5008;50.656;7.188;2023-03-01T12:04:33;8.70;98.20
9939;DHT22;5008;50.656;7.188;2023-03-01T12:07:06;9.30;98.20
9939;DHT22;5008;50.656;7.188;2023-03-01T12:10:04;9.90;96.20
9939;DHT22;5008;50.656;7.188;2023-03-01T12:12:45;10.30;95.60
9939;DHT22;5008;50.656;7.188;2023-03-01T12:18:34;10.60;94.10
9939;DHT22;5008;50.656;7.188;2023-03-01T12:21:11;10.80;93.50
9939;DHT22;5008;50.656;7.188;2023-03-01T12:24:23;10.70;93.10
9939;DHT22;5008;50.656;7.188;2023-03-01T12:27:05;11.10;92.90
9939;DHT22;5008;50.656;7.188;2023-03-01T12:29:40;11.60;93.00
9939;DHT22;5008;50.656;7.188;2023-03-01T12:32:36;11.80;92.50
9939;DHT22;5008;50.656;7.188;2023-03-01T12:35:28;12.10;90.20
9939;DHT22;5008;50.656;7.188;2023-03-01T12:38:10;12.50;89.90
9939;DHT22;5008;50.656;7.188;2023-03-01T12:40:53;12.20;90.00
9939;DHT22;5008;50.656;7.188;2023-03-01T12:43:38;11.90;89.20
9939;DHT22;5008;50.656;7.188;2023-03-01T12:46:15;11.70;88.00
9939;DHT22;5008;50.656;7.188;2023-03-01T12:49:04;11.30;90.20
9939;DHT22;5008;50.656;7.188;2023-03-01T12:51:36;10.70;90.00
9939;DHT22;5008;50.656;7.188;2023-03-01T12:54:10;10.30;90.20
9939;DHT22;5008;50.656;7.188;2023-03-01T12:56:39;10.10;91.10
9939;DHT22;5008;50.656;7.188;2023-03-01T12:59:13;9.90;91.10
9939;DHT22;5008;50.656;7.188;2023-03-01T13:01:47;9.90;91.80
9939;DHT22;5008;50.656;7.188;2023-03-01T13:04:36;10.30;91.60
9939;DHT22;5008;50.656;7.188;2023-03-01T13:07:19;11.60;87.40
9939;DHT22;5008;50.656;7.188;2023-03-01T13:09:53;13.00;85.20
9939;DHT22;5008;50.656;7.188;2023-03-01T13:12:43;13.30;82.00
9939;DHT22;5008;50.656;7.188;2023-03-01T13:15:29;13.50;80.00
9939;DHT22;5008;50.656;7.188;2023-03-01T13:18:04;14.30;80.00
9939;DHT22;5008;50.656;7.188;2023-03-01T13:20:45;14.80;76.30
9939;DHT22;5008;50.656;7.188;2023-03-01T13:23:24;14.40;75.40
9939;DHT22;5008;50.656;7.188;2023-03-01T13:26:07;13.70;79.80
9939;DHT22;5008;50.656;7.188;2023-03-01T13:28:52;14.10;77.70
9939;DHT22;5008;50.656;7.188;2023-03-01T13:34:51;14.10;75.50
9939;DHT22;5008;50.656;7.188;2023-03-01T13:37:23;14.10;74.40
9939;DHT22;5008;50.656;7.188;2023-03-01T13:39:57;14.50;72.50
9939;DHT22;5008;50.656;7.188;2023-03-01T13:42:39;14.00;72.20
9939;DHT22;5008;50.656;7.188;2023-03-01T13:45:35;13.50;72.50
9939;DHT22;5008;50.656;7.188;2023-03-01T13:48:08;12.90;75.00
9939;DHT22;5008;50.656;7.188;2023-03-01T13:50:43;12.30;75.70
9939;DHT22;5008;50.656;7.188;2023-03-01T13:53:15;12.20;76.20
9939;DHT22;5008;50.656;7.188;2023-03-01T13:55:45;13.10;75.70
9939;DHT22;5008;50.656;7.188;2023-03-01T13:58:22;14.10;74.20
9939;DHT22;5008;50.656;7.188;2023-03-01T14:00:56;15.10;72.50
9939;DHT22;5008;50.656;7.188;2023-03-01T14:03:23;15.70;70.80
9939;DHT22;5008;50.656;7.188;2023-03-01T14:06:03;16.10;67.20
9939;DHT22;5008;50.656;7.188;2023-03-01T14:08:32;16.40;67.50
9939;DHT22;5008;50.656;7.188;2023-03-01T14:11:28;16.60;66.80
9939;DHT22;5008;50.656;7.188;2023-03-01T14:14:27;16.10;66.50
9939;DHT22;5008;50.656;7.188;2023-03-01T14:17:04;16.30;66.30
9939;DHT22;5008;50.656;7.188;2023-03-01T14:19:34;17.30;64.10
9939;DHT22;5008;50.656;7.188;2023-03-01T14:22:17;18.20;61.00
9939;DHT22;5008;50.656;7.188;2023-03-01T14:24:48;19.20;59.80
9939;DHT22;5008;50.656;7.188;2023-03-01T14:27:17;20.00;56.10
9939;DHT22;5008;50.656;7.188;2023-03-01T14:29:54;20.00;56.40
9939;DHT22;5008;50.656;7.188;2023-03-01T14:32:24;20.20;54.90
9939;DHT22;5008;50.656;7.188;2023-03-01T14:34:52;20.30;53.30
9939;DHT22;5008;50.656;7.188;2023-03-01T14:37:22;20.10;50.80
9939;DHT22;5008;50.656;7.188;2023-03-01T14:39:49;19.70;50.50
9939;DHT22;5008;50.656;7.188;2023-03-01T14:42:18;19.90;50.20
9939;DHT22;5008;50.656;7.188;2023-03-01T14:44:48;19.70;49.50
9939;DHT22;5008;50.656;7.188;2023-03-01T14:47:27;21.30;47.60
9939;DHT22;5008;50.656;7.188;2023-03-01T14:49:58;22.10;46.80
9939;DHT22;5008;50.656;7.188;2023-03-01T14:52:32;21.10;47.20
9939;DHT22;5008;50.656;7.188;2023-03-01T14:55:03;21.00;46.00
9939;DHT22;5008;50.656;7.188;2023-03-01T14:57:32;20.80;46.40
9939;DHT22;5008;50.656;7.188;2023-03-01T15:00:02;21.10;45.70
9939;DHT22;5008;50.656;7.188;2023-03-01T15:02:31;20.60;46.30
9939;DHT22;5008;50.656;7.188;2023-03-01T15:05:01;18.90;45.50
9939;DHT22;5008;50.656;7.188;2023-03-01T15:07:31;17.40;47.20
9939;DHT22;5008;50.656;7.188;2023-03-01T15:09:59;15.90;47.90
9939;DHT22;5008;50.656;7.188;2023-03-01T15:12:37;14.90;49.70
9939;DHT22;5008;50.656;7.188;2023-03-01T15:15:26;14.10;48.90
9939;DHT22;5008;50.656;7.188;2023-03-01T15:17:59;13.80;49.30
9939;DHT22;5008;50.656;7.188;2023-03-01T15:20:27;13.20;51.10
9939;DHT22;5008;50.656;7.188;2023-03-01T15:22:56;12.70;51.80
9939;DHT22;5008;50.656;7.188;2023-03-01T15:25:25;12.40;53.20
9939;DHT22;5008;50.656;7.188;2023-03-01T15:27:55;12.10;52.40
9939;DHT22;5008;50.656;7.188;2023-03-01T15:30:26;12.10;50.50
9939;DHT22;5008;50.656;7.188;2023-03-01T15:33:18;11.90;50.40
9939;DHT22;5008;50.656;7.188;2023-03-01T15:35:47;11.70;52.10
9939;DHT22;5008;50.656;7.188;2023-03-01T15:38:29;11.50;53.80
9939;DHT22;5008;50.656;7.188;2023-03-01T15:40:59;11.10;54.00
9939;DHT22;5008;50.656;7.188;2023-03-01T15:43:45;10.90;53.20
9939;DHT22;5008;50.656;7.188;2023-03-01T15:46:20;10.80;53.50
9939;DHT22;5008;50.656;7.188;2023-03-01T15:48:51;10.60;54.40
9939;DHT22;5008;50.656;7.188;2023-03-01T15:51:26;10.50;54.70
9939;DHT22;5008;50.656;7.188;2023-03-01T15:53:55;10.30;56.50
9939;DHT22;5008;50.656;7.188;2023-03-01T15:56:24;10.20;57.60
9939;DHT22;5008;50.656;7.188;2023-03-01T15:58:52;10.20;54.50
9939;DHT22;5008;50.656;7.188;2023-03-01T16:01:19;10.10;56.20
9939;DHT22;5008;50.656;7.188;2023-03-01T16:03:46;10.10;56.40
9939;DHT22;5008;50.656;7.188;2023-03-01T16:06:13;10.00;57.30
9939;DHT22;5008;50.656;7.188;2023-03-01T16:08:40;9.90;58.00
9939;DHT22;5008;50.656;7.188;2023-03-01T16:11:20;10.00;62.90
9939;DHT22;5008;50.656;7.188;2023-03-01T16:13:47;10.30;69.70
9939;DHT22;5008;50.656;7.188;2023-03-01T16:16:16;10.50;73.60
9939;DHT22;5008;50.656;7.188;2023-03-01T16:18:45;10.30;62.40
9939;DHT22;5008;50.656;7.188;2023-03-01T16:21:14;10.00;60.40
9939;DHT22;5008;50.656;7.188;2023-03-01T16:23:42;9.80;62.20
9939;DHT22;5008;50.656;7.188;2023-03-01T16:26:31;9.70;60.90
9939;DHT22;5008;50.656;7.188;2023-03-01T16:28:58;9.60;61.20
9939;DHT22;5008;50.656;7.188;2023-03-01T16:31:27;9.50;61.50
9939;DHT22;5008;50.656;7.188;2023-03-01T16:33:54;9.40;62.10
9939;DHT22;5008;50.656;7.188;2023-03-01T16:36:22;9.30;61.30
9939;DHT22;5008;50.656;7.188;2023-03-01T16:38:51;9.20;60.40
9939;DHT22;5008;50.656;7.188;2023-03-01T16:41:19;9.20;60.70
9939;DHT22;5008;50.656;7.188;2023-03-01T16:43:47;9.10;61.20
9939;DHT22;5008;50.656;7.188;2023-03-01T16:46:15;9.00;61.20
9939;DHT22;5008;50.656;7.188;2023-03-01T16:48:44;8.90;61.00
9939;DHT22;5008;50.656;7.188;2023-03-01T16:51:24;8.80;61.10
9939;DHT22;5008;50.656;7.188;2023-03-01T16:53:52;8.60;61.90
9939;DHT22;5008;50.656;7.188;2023-03-01T16:56:49;8.50;64.10
9939;DHT22;5008;50.656;7.188;2023-03-01T16:59:16;8.40;66.60
9939;DHT22;5008;50.656;7.188;2023-03-01T17:01:44;8.20;64.80
9939;DHT22;5008;50.656;7.188;2023-03-01T17:04:13;8.20;63.80
9939;DHT22;5008;50.656;7.188;2023-03-01T17:06:40;8.10;63.00
9939;DHT22;5008;50.656;7.188;2023-03-01T17:09:33;8.10;62.10
9939;DHT22;5008;50.656;7.188;2023-03-01T17:12:16;8.00;61.60
9939;DHT22;5008;50.656;7.188;2023-03-01T17:14:43;8.00;61.50
9939;DHT22;5008;50.656;7.188;2023-03-01T17:17:10;7.90;61.20
9939;DHT22;5008;50.656;7.188;2023-03-01T17:19:39;7.90;60.70
9939;DHT22;5008;50.656;7.188;2023-03-01T17:22:09;7.80;60.60
9939;DHT22;5008;50.656;7.188;2023-03-01T17:24:37;7.80;60.20
9939;DHT22;5008;50.656;7.188;2023-03-01T17:27:05;7.70;60.70
9939;DHT22;5008;50.656;7.188;2023-03-01T17:29:40;7.70;61.20
9939;DHT22;5008;50.656;7.188;2023-03-01T17:32:08;7.60;60.90
9939;DHT22;5008;50.656;7.188;2023-03-01T17:34:54;7.60;61.20
9939;DHT22;5008;50.656;7.188;2023-03-01T17:37:21;7.50;62.60
9939;DHT22;5008;50.656;7.188;2023-03-01T17:39:48;7.40;62.40
9939;DHT22;5008;50.656;7.188;2023-03-01T17:42:21;7.30;62.50
9939;DHT22;5008;50.656;7.188;2023-03-01T17:44:48;7.30;63.90
9939;DHT22;5008;50.656;7.188;2023-03-01T17:47:16;7.10;65.00
9939;DHT22;5008;50.656;7.188;2023-03-01T17:49:43;7.10;66.00
9939;DHT22;5008;50.656;7.188;2023-03-01T17:52:11;6.90;66.10
9939;DHT22;5008;50.656;7.188;2023-03-01T17:54:37;6.80;66.90
9939;DHT22;5008;50.656;7.188;2023-03-01T17:57:05;6.80;66.70
9939;DHT22;5008;50.656;7.188;2023-03-01T17:59:34;6.80;66.30
9939;DHT22;5008;50.656;7.188;2023-03-01T18:02:01;6.80;66.10
9939;DHT22;5008;50.656;7.188;2023-03-01T18:04:28;6.70;67.00
9939;DHT22;5008;50.656;7.188;2023-03-01T18:06:56;6.70;67.80
9939;DHT22;5008;50.656;7.188;2023-03-01T18:09:25;6.70;67.70
9939;DHT22;5008;50.656;7.188;2023-03-01T18:11:52;6.70;68.10
9939;DHT22;5008;50.656;7.188;2023-03-01T18:14:19;6.60;67.90
9939;DHT22;5008;50.656;7.188;2023-03-01T18:16:46;6.60;67.70
9939;DHT22;5008;50.656;7.188;2023-03-01T18:19:13;6.50;67.50
9939;DHT22;5008;50.656;7.188;2023-03-01T18:21:40;6.50;67.60
9939;DHT22;5008;50.656;7.188;2023-03-01T18:24:08;6.40;68.00
9939;DHT22;5008;50.656;7.188;2023-03-01T18:26:37;6.50;69.00
9939;DHT22;5008;50.656;7.188;2023-03-01T18:29:03;6.50;68.50
9939;DHT22;5008;50.656;7.188;2023-03-01T18:31:32;6.40;68.70
9939;DHT22;5008;50.656;7.188;2023-03-01T18:33:59;6.40;68.90
9939;DHT22;5008;50.656;7.188;2023-03-01T18:36:27;6.40;69.10
9939;DHT22;5008;50.656;7.188;2023-03-01T18:38:54;6.40;68.60
9939;DHT22;5008;50.656;7.188;2023-03-01T18:41:22;6.40;68.40
9939;DHT22;5008;50.656;7.188;2023-03-01T18:43:50;6.30;68.40
9939;DHT22;5008;50.656;7.188;2023-03-01T18:46:17;6.30;69.20
9939;DHT22;5008;50.656;7.188;2023-03-01T18:48:45;6.30;69.30
9939;DHT22;5008;50.656;7.188;2023-03-01T18:51:14;6.30;69.30
9939;DHT22;5008;50.656;7.188;2023-03-01T18:53:41;6.20;69.10
9939;DHT22;5008;50.656;7.188;2023-03-01T18:56:11;6.20;68.90
9939;DHT22;5008;50.656;7.188;2023-03-01T18:58:51;6.20;69.70
9939;DHT22;5008;50.656;7.188;2023-03-01T19:01:19;6.10;70.00
9939;DHT22;5008;50.656;7.188;2023-03-01T19:03:47;6.00;69.70
9939;DHT22;5008;50.656;7.188;2023-03-01T19:06:14;5.90;69.70
9939;DHT22;5008;50.656;7.188;2023-03-01T19:08:42;5.90;71.30
9939;DHT22;5008;50.656;7.188;2023-03-01T19:11:10;5.80;73.10
9939;DHT22;5008;50.656;7.188;2023-03-01T19:13:39;5.60;73.40
9939;DHT22;5008;50.656;7.188;2023-03-01T19:16:09;5.40;74.30
9939;DHT22;5008;50.656;7.188;2023-03-01T19:18:47;5.30;76.90
9939;DHT22;5008;50.656;7.188;2023-03-01T19:21:17;5.10;77.10
9939;DHT22;5008;50.656;7.188;2023-03-01T19:23:45;5.00;78.40
9939;DHT22;5008;50.656;7.188;2023-03-01T19:26:15;4.90;78.60
9939;DHT22;5008;50.656;7.188;2023-03-01T19:28:42;4.80;80.30
9939;DHT22;5008;50.656;7.188;2023-03-01T19:31:13;4.70;80.10
9939;DHT22;5008;50.656;7.188;2023-03-01T19:33:40;4.60;81.70
9939;DHT22;5008;50.656;7.188;2023-03-01T19:36:11;4.40;82.00
9939;DHT22;5008;50.656;7.188;2023-03-01T19:38:38;4.30;83.20
9939;DHT22;5008;50.656;7.188;2023-03-01T19:41:07;4.10;84.70
9939;DHT22;5008;50.656;7.188;2023-03-01T19:43:37;3.90;86.10
9939;DHT22;5008;50.656;7.188;2023-03-01T19:46:04;3.80;87.10
9939;DHT22;5008;50.656;7.188;2023-03-01T19:48:32;3.70;88.60
9939;DHT22;5008;50.656;7.188;2023-03-01T19:50:59;3.60;90.40
9939;DHT22;5008;50.656;7.188;2023-03-01T19:53:26;3.60;90.90
9939;DHT22;5008;50.656;7.188;2023-03-01T19:55:56;3.50;91.00
9939;DHT22;5008;50.656;7.188;2023-03-01T19:58:24;3.40;91.30
9939;DHT22;5008;50.656;7.188;2023-03-01T20:00:51;3.30;91.70
9939;DHT22;5008;50.656;7.188;2023-03-01T20:03:23;3.30;92.30
9939;DHT22;5008;50.656;7.188;2023-03-01T20:05:51;3.10;92.70
9939;DHT22;5008;50.656;7.188;2023-03-01T20:08:19;3.10;92.90
9939;DHT22;5008;50.656;7.188;2023-03-01T20:10:45;3.00;93.30
9939;DHT22;5008;50.656;7.188;2023-03-01T20:13:12;2.90;93.50
9939;DHT22;5008;50.656;7.188;2023-03-01T20:15:40;2.80;94.20
9939;DHT22;5008;50.656;7.188;2023-03-01T20:18:08;2.80;94.60
9939;DHT22;5008;50.656;7.188;2023-03-01T20:20:35;2.80;95.10
9939;DHT22;5008;50.656;7.188;2023-03-01T20:23:03;2.80;95.10
9939;DHT22;5008;50.656;7.188;2023-03-01T20:25:30;2.70;95.30
9939;DHT22;5008;50.656;7.188;2023-03-01T20:27:57;2.70;95.50
9939;DHT22;5008;50.656;7.188;2023-03-01T20:30:24;2.60;95.90
9939;DHT22;5008;50.656;7.188;2023-03-01T20:32:52;2.50;96.40
9939;DHT22;5008;50.656;7.188;2023-03-01T20:35:19;2.50;96.80
9939;DHT22;5008;50.656;7.188;2023-03-01T20:37:46;2.40;97.60
9939;DHT22;5008;50.656;7.188;2023-03-01T20:40:14;2.30;97.90
9939;DHT22;5008;50.656;7.188;2023-03-01T20:42:43;2.30;98.20
9939;DHT22;5008;50.656;7.188;2023-03-01T20:45:10;2.20;99.10
9939;DHT22;5008;50.656;7.188;2023-03-01T20:47:37;2.20;99.30
9939;DHT22;5008;50.656;7.188;2023-03-01T20:50:04;2.30;99.80
9939;DHT22;5008;50.656;7.188;2023-03-01T20:52:31;2.30;99.70
9939;DHT22;5008;50.656;7.188;2023-03-01T20:54:59;2.20;99.80
9939;DHT22;5008;50.656;7.188;2023-03-01T20:57:27;2.10;99.90
9939;DHT22;5008;50.656;7.188;2023-03-01T20:59:54;2.10;99.90
9939;DHT22;5008;50.656;7.188;2023-03-01T21:02:21;2.20;99.90
9939;DHT22;5008;50.656;7.188;2023-03-01T21:04:48;2.00;99.90
9939;DHT22;5008;50.656;7.188;2023-03-01T21:07:14;2.00;99.90
9939;DHT22;5008;50.656;7.188;2023-03-01T21:09:41;1.90;99.90
9939;DHT22;5008;50.656;7.188;2023-03-01T21:12:09;2.00;99.90
9939;DHT22;5008;50.656;7.188;2023-03-01T21:14:38;2.00;99.90
9939;DHT22;5008;50.656;7.188;2023-03-01T21:17:08;2.00;99.90
9939;DHT22;5008;50.656;7.188;2023-03-01T21:19:36;1.90;99.90
9939;DHT22;5008;50.656;7.188;2023-03-01T21:22:03;1.80;99.90
9939;DHT22;5008;50.656;7.188;2023-03-01T21:24:29;1.80;99.90
9939;DHT22;5008;50.656;7.188;2023-03-01T21:26:56;1.80;99.90
9939;DHT22;5008;50.656;7.188;2023-03-01T21:29:23;1.70;99.90
9939;DHT22;5008;50.656;7.188;2023-03-01T21:31:52;1.80;99.90
9939;DHT22;5008;50.656;7.188;2023-03-01T21:34:18;1.80;99.90
9939;DHT22;5008;50.656;7.188;2023-03-01T21:36:45;1.70;99.90
9939;DHT22;5008;50.656;7.188;2023-03-01T21:39:12;1.60;99.90
9939;DHT22;5008;50.656;7.188;2023-03-01T21:41:42;1.60;99.90
9939;DHT22;5008;50.656;7.188;2023-03-01T21:44:09;1.50;99.90
9939;DHT22;5008;50.656;7.188;2023-03-01T21:46:37;1.50;99.90
9939;DHT22;5008;50.656;7.188;2023-03-01T21:49:06;1.40;99.90
9939;DHT22;5008;50.656;7.188;2023-03-01T21:51:33;1.40;99.90